sensor_id;sensor_type;location;lat;lon;timestamp;P1;durP1;ratioP1;P2;durP2;ratioP2
39880;SDS011;25554;44.954;10.068;2024-01-11T00:02:00;22.20;;;10.13;;
39880;SDS011;25554;44.954;10.068;2024-01-11T00:04:26;23.13;;;11.10;;
39880;SDS011;25554;44.954;10.068;2024-01-11T00:06:52;20.70;;;10.95;;
39880;SDS011;25554;44.954;10.068;2024-01-11T00:09:21;20.90;;;11.40;;
39880;SDS011;25554;44.954;10.068;2024-01-11T00:14:13;22.15;;;11.10;;
39880;SDS011;25554;44.954;10.068;2024-01-11T00:16:41;23.33;;;11.05;;
39880;SDS011;25554;44.954;10.068;2024-01-11T00:19:07;25.02;;;11.40;;
39880;SDS011;25554;44.954;10.068;2024-01-11T00:21:33;25.13;;;11.20;;
39880;SDS011;25554;44.954;10.068;2024-01-11T00:24:00;23.13;;;12.15;;
39880;SDS011;25554;44.954;10.068;2024-01-11T00:26:26;21.67;;;10.93;;
39880;SDS011;25554;44.954;10.068;2024-01-11T00:31:18;19.60;;;8.98;;
39880;SDS011;25554;44.954;10.068;2024-01-11T00:36:11;18.23;;;9.63;;
39880;SDS011;25554;44.954;10.068;2024-01-11T00:38:44;24.10;;;10.55;;
39880;SDS011;25554;44.954;10.068;2024-01-11T00:43:36;18.67;;;8.95;;
39880;SDS011;25554;44.954;10.068;2024-01-11T00:46:03;21.00;;;9.52;;
39880;SDS011;25554;44.954;10.068;2024-01-11T00:48:29;22.50;;;10.05;;
39880;SDS011;25554;44.954;10.068;2024-01-11T00:50:56;24.35;;;11.18;;
39880;SDS011;25554;44.954;10.068;2024-01-11T00:55:48;20.33;;;9.63;;
39880;SDS011;25554;44.954;10.068;2024-01-11T01:00:40;21.48;;;10.25;;
39880;SDS011;25554;44.954;10.068;2024-01-11T01:05:33;20.58;;;9.68;;
39880;SDS011;25554;44.954;10.068;2024-01-11T01:10:25;21.35;;;10.30;;
39880;SDS011;25554;44.954;10.068;2024-01-11T01:12:52;20.48;;;10.50;;
39880;SDS011;25554;44.954;10.068;2024-01-11T01:15:18;22.35;;;10.90;;
39880;SDS011;25554;44.954;10.068;2024-01-11T01:17:44;21.92;;;11.35;;
39880;SDS011;25554;44.954;10.068;2024-01-11T01:22:36;18.98;;;9.02;;
39880;SDS011;25554;44.954;10.068;2024-01-11T01:27:29;18.77;;;8.55;;
39880;SDS011;25554;44.954;10.068;2024-01-11T01:29:56;16.67;;;8.43;;
39880;SDS011;25554;44.954;10.068;2024-01-11T01:34:48;18.40;;;8.85;;
39880;SDS011;25554;44.954;10.068;2024-01-11T01:37:15;17.70;;;9.02;;
39880;SDS011;25554;44.954;10.068;2024-01-11T01:39:41;24.05;;;9.48;;
39880;SDS011;25554;44.954;10.068;2024-01-11T01:42:08;18.77;;;9.75;;
39880;SDS011;25554;44.954;10.068;2024-01-11T01:47:00;20.88;;;9.70;;
39880;SDS011;25554;44.954;10.068;2024-01-11T01:49:28;16.83;;;8.73;;
39880;SDS011;25554;44.954;10.068;2024-01-11T01:51:55;18.42;;;8.98;;
39880;SDS011;25554;44.954;10.068;2024-01-11T01:56:48;16.33;;;7.97;;
39880;SDS011;25554;44.954;10.068;2024-01-11T01:59:15;20.20;;;8.90;;
39880;SDS011;25554;44.954;10.068;2024-01-11T02:01:42;19.48;;;9.20;;
39880;SDS011;25554;44.954;10.068;2024-01-11T02:04:09;18.65;;;8.27;;
39880;SDS011;25554;44.954;10.068;2024-01-11T02:06:36;17.63;;;8.35;;
39880;SDS011;25554;44.954;10.068;2024-01-11T02:09:03;17.73;;;9.45;;
39880;SDS011;25554;44.954;10.068;2024-01-11T02:11:30;18.02;;;9.90;;
39880;SDS011;25554;44.954;10.068;2024-01-11T02:13:56;18.15;;;9.48;;
39880;SDS011;25554;44.954;10.068;2024-01-11T02:16:24;19.40;;;9.57;;
39880;SDS011;25554;44.954;10.068;2024-01-11T02:21:16;16.23;;;8.35;;
39880;SDS011;25554;44.954;10.068;2024-01-11T02:23:43;20.23;;;9.82;;
39880;SDS011;25554;44.954;10.068;2024-01-11T02:26:15;18.60;;;9.27;;
39880;SDS011;25554;44.954;10.068;2024-01-11T02:28:45;19.45;;;8.40;;
39880;SDS011;25554;44.954;10.068;2024-01-11T02:31:12;18.10;;;8.85;;
39880;SDS011;25554;44.954;10.068;2024-01-11T02:33:39;17.02;;;7.88;;
39880;SDS011;25554;44.954;10.068;2024-01-11T02:36:06;16.00;;;7.78;;
39880;SDS011;25554;44.954;10.068;2024-01-11T02:38:33;18.40;;;8.80;;
39880;SDS011;25554;44.954;10.068;2024-01-11T02:41:00;16.45;;;8.18;;
39880;SDS011;25554;44.954;10.068;2024-01-11T02:45:56;15.50;;;7.50;;
39880;SDS011;25554;44.954;10.068;2024-01-11T02:48:27;17.85;;;8.00;;
39880;SDS011;25554;44.954;10.068;2024-01-11T02:50:55;18.35;;;8.73;;
39880;SDS011;25554;44.954;10.068;2024-01-11T02:53:22;17.88;;;8.05;;
39880;SDS011;25554;44.954;10.068;2024-01-11T02:55:52;18.50;;;7.75;;
39880;SDS011;25554;44.954;10.068;2024-01-11T02:58:18;17.17;;;8.25;;
39880;SDS011;25554;44.954;10.068;2024-01-11T03:03:11;17.43;;;7.50;;
39880;SDS011;25554;44.954;10.068;2024-01-11T03:05:37;17.40;;;8.15;;
39880;SDS011;25554;44.954;10.068;2024-01-11T03:10:30;16.83;;;6.68;;
39880;SDS011;25554;44.954;10.068;2024-01-11T03:12:57;16.33;;;7.75;;
39880;SDS011;25554;44.954;10.068;2024-01-11T03:15:23;14.23;;;7.55;;
39880;SDS011;25554;44.954;10.068;2024-01-11T03:20:16;14.57;;;6.97;;
39880;SDS011;25554;44.954;10.068;2024-01-11T03:22:46;18.48;;;7.15;;
39880;SDS011;25554;44.954;10.068;2024-01-11T03:25:12;14.15;;;7.00;;
39880;SDS011;25554;44.954;10.068;2024-01-11T03:30:05;20.90;;;8.20;;
39880;SDS011;25554;44.954;10.068;2024-01-11T03:32:32;17.17;;;7.57;;
39880;SDS011;25554;44.954;10.068;2024-01-11T03:37:24;13.05;;;5.65;;
39880;SDS011;25554;44.954;10.068;2024-01-11T03:42:17;14.30;;;6.55;;
39880;SDS011;25554;44.954;10.068;2024-01-11T03:44:43;15.05;;;6.82;;
39880;SDS011;25554;44.954;10.068;2024-01-11T03:49:35;14.90;;;6.43;;
39880;SDS011;25554;44.954;10.068;2024-01-11T03:54:28;14.30;;;6.68;;
39880;SDS011;25554;44.954;10.068;2024-01-11T03:56:54;11.60;;;6.28;;
39880;SDS011;25554;44.954;10.068;2024-01-11T04:01:46;13.50;;;6.43;;
39880;SDS011;25554;44.954;10.068;2024-01-11T04:06:39;16.63;;;6.97;;
39880;SDS011;25554;44.954;10.068;2024-01-11T04:11:32;20.67;;;7.10;;
39880;SDS011;25554;44.954;10.068;2024-01-11T04:13:58;16.27;;;7.43;;
39880;SDS011;25554;44.954;10.068;2024-01-11T04:18:50;16.02;;;7.47;;
39880;SDS011;25554;44.954;10.068;2024-01-11T04:23:54;17.38;;;7.07;;
39880;SDS011;25554;44.954;10.068;2024-01-11T04:26:24;18.23;;;7.70;;
39880;SDS011;25554;44.954;10.068;2024-01-11T04:31:17;17.02;;;6.97;;
39880;SDS011;25554;44.954;10.068;2024-01-11T04:33:44;27.00;;;6.03;;
39880;SDS011;25554;44.954;10.068;2024-01-11T04:36:11;22.75;;;7.80;;
39880;SDS011;25554;44.954;10.068;2024-01-11T04:38:38;16.90;;;6.72;;
39880;SDS011;25554;44.954;10.068;2024-01-11T04:41:08;19.17;;;6.78;;
39880;SDS011;25554;44.954;10.068;2024-01-11T04:48:45;15.30;;;6.10;;
39880;SDS011;25554;44.954;10.068;2024-01-11T04:51:12;12.88;;;6.57;;
39880;SDS011;25554;44.954;10.068;2024-01-11T04:53:40;13.57;;;6.35;;
39880;SDS011;25554;44.954;10.068;2024-01-11T04:56:08;13.63;;;6.00;;
39880;SDS011;25554;44.954;10.068;2024-01-11T04:58:35;17.27;;;5.93;;
39880;SDS011;25554;44.954;10.068;2024-01-11T05:01:04;17.65;;;6.88;;
39880;SDS011;25554;44.954;10.068;2024-01-11T05:03:31;14.00;;;6.40;;
39880;SDS011;25554;44.954;10.068;2024-01-11T05:05:58;15.32;;;6.88;;
39880;SDS011;25554;44.954;10.068;2024-01-11T05:08:25;14.88;;;6.47;;
39880;SDS011;25554;44.954;10.068;2024-01-11T05:10:52;13.00;;;6.07;;
39880;SDS011;25554;44.954;10.068;2024-01-11T05:15:45;18.55;;;5.88;;
39880;SDS011;25554;44.954;10.068;2024-01-11T05:18:11;20.88;;;6.53;;
39880;SDS011;25554;44.954;10.068;2024-01-11T05:20:38;13.90;;;6.50;;
39880;SDS011;25554;44.954;10.068;2024-01-11T05:23:05;17.88;;;6.35;;
39880;SDS011;25554;44.954;10.068;2024-01-11T05:28:00;12.23;;;5.57;;
39880;SDS011;25554;44.954;10.068;2024-01-11T05:30:28;12.63;;;6.00;;
39880;SDS011;25554;44.954;10.068;2024-01-11T05:32:54;13.90;;;5.90;;
39880;SDS011;25554;44.954;10.068;2024-01-11T05:37:49;10.95;;;5.22;;
39880;SDS011;25554;44.954;10.068;2024-01-11T05:40:16;18.10;;;7.10;;
39880;SDS011;25554;44.954;10.068;2024-01-11T05:42:42;14.85;;;6.60;;
39880;SDS011;25554;44.954;10.068;2024-01-11T05:47:36;19.40;;;6.18;;
39880;SDS011;25554;44.954;10.068;2024-01-11T05:50:02;10.35;;;6.00;;
39880;SDS011;25554;44.954;10.068;2024-01-11T05:52:29;10.63;;;5.85;;
39880;SDS011;25554;44.954;10.068;2024-01-11T05:57:21;15.82;;;6.50;;
39880;SDS011;25554;44.954;10.068;2024-01-11T06:02:14;16.08;;;7.43;;
39880;SDS011;25554;44.954;10.068;2024-01-11T06:07:06;20.88;;;6.85;;
39880;SDS011;25554;44.954;10.068;2024-01-11T06:11:58;16.00;;;9.48;;
39880;SDS011;25554;44.954;10.068;2024-01-11T06:14:25;16.52;;;6.65;;
39880;SDS011;25554;44.954;10.068;2024-01-11T06:19:17;12.13;;;5.95;;
39880;SDS011;25554;44.954;10.068;2024-01-11T06:24:10;17.85;;;6.15;;
39880;SDS011;25554;44.954;10.068;2024-01-11T06:26:36;20.15;;;6.60;;
39880;SDS011;25554;44.954;10.068;2024-01-11T06:29:03;15.32;;;6.43;;
39880;SDS011;25554;44.954;10.068;2024-01-11T06:31:29;13.02;;;6.32;;
39880;SDS011;25554;44.954;10.068;2024-01-11T06:33:55;16.63;;;7.03;;
39880;SDS011;25554;44.954;10.068;2024-01-11T06:36:22;12.38;;;7.03;;
39880;SDS011;25554;44.954;10.068;2024-01-11T06:38:48;13.68;;;6.55;;
39880;SDS011;25554;44.954;10.068;2024-01-11T06:41:14;20.08;;;7.53;;
39880;SDS011;25554;44.954;10.068;2024-01-11T06:46:07;21.40;;;7.20;;
39880;SDS011;25554;44.954;10.068;2024-01-11T06:48:34;18.65;;;6.38;;
39880;SDS011;25554;44.954;10.068;2024-01-11T06:51:01;16.33;;;6.50;;
39880;SDS011;25554;44.954;10.068;2024-01-11T06:53:27;15.95;;;7.30;;
39880;SDS011;25554;44.954;10.068;2024-01-11T06:55:54;17.75;;;6.90;;
39880;SDS011;25554;44.954;10.068;2024-01-11T07:00:49;15.40;;;5.80;;
39880;SDS011;25554;44.954;10.068;2024-01-11T07:03:16;18.90;;;7.90;;
39880;SDS011;25554;44.954;10.068;2024-01-11T07:05:43;16.15;;;7.28;;
39880;SDS011;25554;44.954;10.068;2024-01-11T07:10:35;14.32;;;6.15;;
39880;SDS011;25554;44.954;10.068;2024-01-11T07:13:03;18.48;;;6.90;;
39880;SDS011;25554;44.954;10.068;2024-01-11T07:17:56;18.45;;;7.25;;
39880;SDS011;25554;44.954;10.068;2024-01-11T07:22:48;16.00;;;6.32;;
39880;SDS011;25554;44.954;10.068;2024-01-11T07:27:41;21.42;;;7.38;;
39880;SDS011;25554;44.954;10.068;2024-01-11T07:32:34;15.77;;;6.55;;
39880;SDS011;25554;44.954;10.068;2024-01-11T07:37:26;17.83;;;6.55;;
39880;SDS011;25554;44.954;10.068;2024-01-11T07:39:53;19.05;;;6.80;;
39880;SDS011;25554;44.954;10.068;2024-01-11T07:42:19;13.68;;;6.03;;
39880;SDS011;25554;44.954;10.068;2024-01-11T07:47:12;13.90;;;6.32;;
39880;SDS011;25554;44.954;10.068;2024-01-11T07:52:05;14.63;;;5.78;;
39880;SDS011;25554;44.954;10.068;2024-01-11T07:54:31;17.33;;;6.65;;
39880;SDS011;25554;44.954;10.068;2024-01-11T07:56:57;13.35;;;6.65;;
39880;SDS011;25554;44.954;10.068;2024-01-11T08:01:50;16.15;;;6.70;;
39880;SDS011;25554;44.954;10.068;2024-01-11T08:04:18;15.68;;;7.90;;
39880;SDS011;25554;44.954;10.068;2024-01-11T08:06:44;23.23;;;9.57;;
39880;SDS011;25554;44.954;10.068;2024-01-11T08:09:11;21.60;;;10.25;;
39880;SDS011;25554;44.954;10.068;2024-01-11T08:11:39;23.50;;;10.50;;
39880;SDS011;25554;44.954;10.068;2024-01-11T08:14:07;25.50;;;11.40;;
39880;SDS011;25554;44.954;10.068;2024-01-11T08:19:00;33.38;;;12.25;;
39880;SDS011;25554;44.954;10.068;2024-01-11T08:21:26;31.38;;;12.52;;
39880;SDS011;25554;44.954;10.068;2024-01-11T08:23:54;28.08;;;11.82;;
39880;SDS011;25554;44.954;10.068;2024-01-11T08:26:20;23.75;;;10.00;;
39880;SDS011;25554;44.954;10.068;2024-01-11T08:28:47;21.42;;;9.35;;
39880;SDS011;25554;44.954;10.068;2024-01-11T08:31:14;23.52;;;9.98;;
39880;SDS011;25554;44.954;10.068;2024-01-11T08:33:40;26.65;;;11.90;;
39880;SDS011;25554;44.954;10.068;2024-01-11T08:36:07;29.15;;;12.52;;
39880;SDS011;25554;44.954;10.068;2024-01-11T08:40:59;38.58;;;16.10;;
39880;SDS011;25554;44.954;10.068;2024-01-11T08:43:26;34.42;;;15.02;;
39880;SDS011;25554;44.954;10.068;2024-01-11T08:45:53;23.63;;;11.45;;
39880;SDS011;25554;44.954;10.068;2024-01-11T08:48:19;24.63;;;10.85;;
39880;SDS011;25554;44.954;10.068;2024-01-11T08:50:46;26.05;;;11.10;;
39880;SDS011;25554;44.954;10.068;2024-01-11T08:53:13;21.52;;;10.60;;
39880;SDS011;25554;44.954;10.068;2024-01-11T08:55:39;22.08;;;10.52;;
39880;SDS011;25554;44.954;10.068;2024-01-11T09:00:32;18.67;;;9.73;;
39880;SDS011;25554;44.954;10.068;2024-01-11T09:05:25;22.67;;;9.32;;
39880;SDS011;25554;44.954;10.068;2024-01-11T09:10:17;19.45;;;8.95;;
39880;SDS011;25554;44.954;10.068;2024-01-11T09:12:44;20.55;;;8.75;;
39880;SDS011;25554;44.954;10.068;2024-01-11T09:17:36;17.80;;;9.20;;
39880;SDS011;25554;44.954;10.068;2024-01-11T09:20:04;20.45;;;9.88;;
39880;SDS011;25554;44.954;10.068;2024-01-11T09:22:31;24.02;;;11.18;;
39880;SDS011;25554;44.954;10.068;2024-01-11T09:27:23;28.52;;;11.50;;
39880;SDS011;25554;44.954;10.068;2024-01-11T09:32:15;26.65;;;10.75;;
39880;SDS011;25554;44.954;10.068;2024-01-11T09:37:10;29.05;;;12.27;;
39880;SDS011;25554;44.954;10.068;2024-01-11T09:42:06;22.42;;;11.35;;
39880;SDS011;25554;44.954;10.068;2024-01-11T09:44:38;22.58;;;12.23;;
39880;SDS011;25554;44.954;10.068;2024-01-11T09:47:08;30.00;;;14.18;;
39880;SDS011;25554;44.954;10.068;2024-01-11T09:49:36;25.85;;;13.10;;
39880;SDS011;25554;44.954;10.068;2024-01-11T09:52:04;27.27;;;13.27;;
39880;SDS011;25554;44.954;10.068;2024-01-11T09:54:34;27.70;;;12.35;;
39880;SDS011;25554;44.954;10.068;2024-01-11T09:57:00;27.15;;;12.13;;
39880;SDS011;25554;44.954;10.068;2024-01-11T09:59:29;31.20;;;12.13;;
39880;SDS011;25554;44.954;10.068;2024-01-11T10:01:56;27.20;;;11.10;;
39880;SDS011;25554;44.954;10.068;2024-01-11T10:04:23;21.38;;;10.80;;
39880;SDS011;25554;44.954;10.068;2024-01-11T10:06:50;20.30;;;11.32;;
39880;SDS011;25554;44.954;10.068;2024-01-11T10:09:19;24.27;;;11.55;;
39880;SDS011;25554;44.954;10.068;2024-01-11T10:14:12;19.13;;;9.52;;
39880;SDS011;25554;44.954;10.068;2024-01-11T10:16:38;20.83;;;10.60;;
39880;SDS011;25554;44.954;10.068;2024-01-11T10:19:07;21.90;;;10.93;;
39880;SDS011;25554;44.954;10.068;2024-01-11T10:21:34;21.50;;;10.82;;
39880;SDS011;25554;44.954;10.068;2024-01-11T10:24:05;16.88;;;9.63;;
39880;SDS011;25554;44.954;10.068;2024-01-11T10:26:31;19.45;;;10.18;;
39880;SDS011;25554;44.954;10.068;2024-01-11T10:29:01;18.20;;;9.75;;
39880;SDS011;25554;44.954;10.068;2024-01-11T10:31:30;23.52;;;11.48;;
39880;SDS011;25554;44.954;10.068;2024-01-11T10:34:00;22.17;;;11.23;;
39880;SDS011;25554;44.954;10.068;2024-01-11T10:36:30;22.65;;;10.82;;
39880;SDS011;25554;44.954;10.068;2024-01-11T10:38:57;20.77;;;10.57;;
39880;SDS011;25554;44.954;10.068;2024-01-11T10:41:32;20.48;;;10.85;;
39880;SDS011;25554;44.954;10.068;2024-01-11T10:44:04;21.63;;;11.27;;
39880;SDS011;25554;44.954;10.068;2024-01-11T10:46:39;23.73;;;10.85;;
39880;SDS011;25554;44.954;10.068;2024-01-11T10:49:07;23.67;;;11.75;;
39880;SDS011;25554;44.954;10.068;2024-01-11T10:51:35;26.00;;;12.80;;
39880;SDS011;25554;44.954;10.068;2024-01-11T10:54:02;22.90;;;12.38;;
39880;SDS011;25554;44.954;10.068;2024-01-11T10:56:30;19.58;;;10.50;;
39880;SDS011;25554;44.954;10.068;2024-01-11T10:58:57;26.77;;;11.52;;
39880;SDS011;25554;44.954;10.068;2024-01-11T11:01:26;23.48;;;11.45;;
39880;SDS011;25554;44.954;10.068;2024-01-11T11:03:52;28.27;;;13.27;;
39880;SDS011;25554;44.954;10.068;2024-01-11T11:06:21;22.75;;;12.57;;
39880;SDS011;25554;44.954;10.068;2024-01-11T11:08:49;21.73;;;11.98;;
39880;SDS011;25554;44.954;10.068;2024-01-11T11:11:17;22.40;;;11.70;;
39880;SDS011;25554;44.954;10.068;2024-01-11T11:13:46;24.10;;;12.98;;
39880;SDS011;25554;44.954;10.068;2024-01-11T11:16:15;24.50;;;13.57;;
39880;SDS011;25554;44.954;10.068;2024-01-11T11:18:42;22.55;;;12.63;;
39880;SDS011;25554;44.954;10.068;2024-01-11T11:21:12;26.80;;;14.13;;
39880;SDS011;25554;44.954;10.068;2024-01-11T11:23:38;25.02;;;13.27;;
39880;SDS011;25554;44.954;10.068;2024-01-11T11:26:05;23.52;;;12.90;;
39880;SDS011;25554;44.954;10.068;2024-01-11T11:28:35;27.17;;;13.77;;
39880;SDS011;25554;44.954;10.068;2024-01-11T11:31:02;24.48;;;13.13;;
39880;SDS011;25554;44.954;10.068;2024-01-11T11:33:29;24.90;;;13.25;;
39880;SDS011;25554;44.954;10.068;2024-01-11T11:35:59;25.10;;;13.60;;
39880;SDS011;25554;44.954;10.068;2024-01-11T11:38:29;28.58;;;15.13;;
39880;SDS011;25554;44.954;10.068;2024-01-11T11:40:57;30.55;;;14.55;;
39880;SDS011;25554;44.954;10.068;2024-01-11T11:43:26;29.58;;;15.30;;
39880;SDS011;25554;44.954;10.068;2024-01-11T11:45:53;26.50;;;14.98;;
39880;SDS011;25554;44.954;10.068;2024-01-11T11:53:41;28.05;;;15.68;;
39880;SDS011;25554;44.954;10.068;2024-01-11T11:56:08;28.90;;;15.38;;
39880;SDS011;25554;44.954;10.068;2024-01-11T11:58:36;27.13;;;15.68;;
39880;SDS011;25554;44.954;10.068;2024-01-11T12:01:03;27.83;;;15.25;;
39880;SDS011;25554;44.954;10.068;2024-01-11T12:03:33;26.38;;;15.50;;
39880;SDS011;25554;44.954;10.068;2024-01-11T12:06:05;24.52;;;15.05;;
39880;SDS011;25554;44.954;10.068;2024-01-11T12:08:37;30.05;;;15.38;;
39880;SDS011;25554;44.954;10.068;2024-01-11T12:11:06;33.85;;;16.38;;
39880;SDS011;25554;44.954;10.068;2024-01-11T12:13:33;29.90;;;16.23;;
39880;SDS011;25554;44.954;10.068;2024-01-11T12:16:00;31.52;;;17.05;;
39880;SDS011;25554;44.954;10.068;2024-01-11T12:18:27;30.92;;;16.35;;
39880;SDS011;25554;44.954;10.068;2024-01-11T12:23:19;26.50;;;15.00;;
39880;SDS011;25554;44.954;10.068;2024-01-11T12:25:46;27.35;;;15.77;;
39880;SDS011;25554;44.954;10.068;2024-01-11T12:28:13;30.10;;;16.88;;
39880;SDS011;25554;44.954;10.068;2024-01-11T12:30:39;30.90;;;14.68;;
39880;SDS011;25554;44.954;10.068;2024-01-11T12:33:06;28.08;;;16.80;;
39880;SDS011;25554;44.954;10.068;2024-01-11T12:35:34;28.50;;;16.52;;
39880;SDS011;25554;44.954;10.068;2024-01-11T12:38:01;32.22;;;16.08;;
39880;SDS011;25554;44.954;10.068;2024-01-11T12:40:31;37.08;;;17.17;;
39880;SDS011;25554;44.954;10.068;2024-01-11T12:43:03;33.63;;;16.75;;
39880;SDS011;25554;44.954;10.068;2024-01-11T12:45:36;35.47;;;16.20;;
39880;SDS011;25554;44.954;10.068;2024-01-11T12:48:06;31.08;;;16.52;;
39880;SDS011;25554;44.954;10.068;2024-01-11T12:50:34;30.80;;;16.55;;
39880;SDS011;25554;44.954;10.068;2024-01-11T12:55:35;33.50;;;17.30;;
39880;SDS011;25554;44.954;10.068;2024-01-11T12:58:05;30.60;;;16.80;;
39880;SDS011;25554;44.954;10.068;2024-01-11T13:00:38;34.38;;;16.70;;
39880;SDS011;25554;44.954;10.068;2024-01-11T13:03:05;35.42;;;17.55;;
39880;SDS011;25554;44.954;10.068;2024-01-11T13:05:31;29.98;;;16.58;;
39880;SDS011;25554;44.954;10.068;2024-01-11T13:08:10;32.60;;;16.40;;
39880;SDS011;25554;44.954;10.068;2024-01-11T13:10:36;35.60;;;17.35;;
39880;SDS011;25554;44.954;10.068;2024-01-11T13:13:03;33.70;;;17.55;;
39880;SDS011;25554;44.954;10.068;2024-01-11T13:15:31;33.30;;;17.40;;
39880;SDS011;25554;44.954;10.068;2024-01-11T13:17:58;31.70;;;16.70;;
39880;SDS011;25554;44.954;10.068;2024-01-11T13:20:25;34.00;;;17.42;;
39880;SDS011;25554;44.954;10.068;2024-01-11T13:23:00;34.60;;;17.63;;
39880;SDS011;25554;44.954;10.068;2024-01-11T13:25:42;34.10;;;16.83;;
39880;SDS011;25554;44.954;10.068;2024-01-11T13:28:08;32.67;;;17.15;;
39880;SDS011;25554;44.954;10.068;2024-01-11T13:30:40;33.03;;;17.90;;
39880;SDS011;25554;44.954;10.068;2024-01-11T13:33:07;30.75;;;17.95;;
39880;SDS011;25554;44.954;10.068;2024-01-11T13:35:35;31.23;;;16.88;;
39880;SDS011;25554;44.954;10.068;2024-01-11T13:38:02;35.70;;;18.35;;
39880;SDS011;25554;44.954;10.068;2024-01-11T13:40:29;32.35;;;17.70;;
39880;SDS011;25554;44.954;10.068;2024-01-11T13:42:56;36.00;;;17.35;;
39880;SDS011;25554;44.954;10.068;2024-01-11T13:45:24;31.05;;;17.02;;
39880;SDS011;25554;44.954;10.068;2024-01-11T13:47:51;33.95;;;17.27;;
39880;SDS011;25554;44.954;10.068;2024-01-11T13:50:22;30.00;;;17.75;;
39880;SDS011;25554;44.954;10.068;2024-01-11T13:52:52;36.30;;;17.98;;
39880;SDS011;25554;44.954;10.068;2024-01-11T13:55:18;34.75;;;17.65;;
39880;SDS011;25554;44.954;10.068;2024-01-11T13:57:47;38.22;;;18.88;;
39880;SDS011;25554;44.954;10.068;2024-01-11T14:00:15;36.17;;;18.15;;
39880;SDS011;25554;44.954;10.068;2024-01-11T14:02:43;33.08;;;17.00;;
39880;SDS011;25554;44.954;10.068;2024-01-11T14:05:11;29.88;;;17.55;;
39880;SDS011;25554;44.954;10.068;2024-01-11T14:07:39;36.30;;;16.40;;
39880;SDS011;25554;44.954;10.068;2024-01-11T14:10:07;31.98;;;18.15;;
39880;SDS011;25554;44.954;10.068;2024-01-11T14:12:35;31.58;;;17.45;;
39880;SDS011;25554;44.954;10.068;2024-01-11T14:15:03;31.88;;;17.55;;
39880;SDS011;25554;44.954;10.068;2024-01-11T14:17:32;34.33;;;17.50;;
39880;SDS011;25554;44.954;10.068;2024-01-11T14:19:59;37.38;;;18.88;;
39880;SDS011;25554;44.954;10.068;2024-01-11T14:22:27;32.90;;;16.83;;
39880;SDS011;25554;44.954;10.068;2024-01-11T14:24:53;29.70;;;16.98;;
39880;SDS011;25554;44.954;10.068;2024-01-11T14:27:20;34.13;;;17.42;;
39880;SDS011;25554;44.954;10.068;2024-01-11T14:29:47;31.80;;;18.02;;
39880;SDS011;25554;44.954;10.068;2024-01-11T14:32:14;40.75;;;19.92;;
39880;SDS011;25554;44.954;10.068;2024-01-11T14:34:44;40.83;;;19.73;;
39880;SDS011;25554;44.954;10.068;2024-01-11T14:37:10;34.72;;;17.65;;
39880;SDS011;25554;44.954;10.068;2024-01-11T14:39:38;32.03;;;17.40;;
39880;SDS011;25554;44.954;10.068;2024-01-11T14:42:05;36.63;;;19.20;;
39880;SDS011;25554;44.954;10.068;2024-01-11T14:46:57;35.53;;;18.25;;
39880;SDS011;25554;44.954;10.068;2024-01-11T14:49:24;35.28;;;17.38;;
39880;SDS011;25554;44.954;10.068;2024-01-11T14:51:51;34.25;;;17.73;;
39880;SDS011;25554;44.954;10.068;2024-01-11T14:54:17;40.28;;;18.70;;
39880;SDS011;25554;44.954;10.068;2024-01-11T14:56:46;32.90;;;18.52;;
39880;SDS011;25554;44.954;10.068;2024-01-11T14:59:15;34.92;;;18.77;;
39880;SDS011;25554;44.954;10.068;2024-01-11T15:01:42;34.00;;;17.33;;
39880;SDS011;25554;44.954;10.068;2024-01-11T15:04:08;34.67;;;17.50;;
39880;SDS011;25554;44.954;10.068;2024-01-11T15:06:34;33.40;;;18.38;;
39880;SDS011;25554;44.954;10.068;2024-01-11T15:11:28;37.05;;;17.38;;
39880;SDS011;25554;44.954;10.068;2024-01-11T15:13:56;34.95;;;19.05;;
39880;SDS011;25554;44.954;10.068;2024-01-11T15:16:22;37.75;;;18.08;;
39880;SDS011;25554;44.954;10.068;2024-01-11T15:18:48;42.88;;;18.25;;
39880;SDS011;25554;44.954;10.068;2024-01-11T15:21:15;43.85;;;18.83;;
39880;SDS011;25554;44.954;10.068;2024-01-11T15:23:42;35.60;;;18.40;;
39880;SDS011;25554;44.954;10.068;2024-01-11T15:26:08;31.65;;;17.40;;
39880;SDS011;25554;44.954;10.068;2024-01-11T15:28:34;35.30;;;18.65;;
39880;SDS011;25554;44.954;10.068;2024-01-11T15:33:27;37.17;;;17.73;;
39880;SDS011;25554;44.954;10.068;2024-01-11T15:35:54;36.25;;;17.48;;
39880;SDS011;25554;44.954;10.068;2024-01-11T15:38:20;31.40;;;17.13;;
39880;SDS011;25554;44.954;10.068;2024-01-11T15:40:47;33.50;;;17.70;;
39880;SDS011;25554;44.954;10.068;2024-01-11T15:43:14;33.38;;;17.92;;
39880;SDS011;25554;44.954;10.068;2024-01-11T15:45:40;31.33;;;17.27;;
39880;SDS011;25554;44.954;10.068;2024-01-11T15:48:06;36.13;;;17.13;;
39880;SDS011;25554;44.954;10.068;2024-01-11T15:50:32;31.70;;;16.60;;
39880;SDS011;25554;44.954;10.068;2024-01-11T15:52:59;33.38;;;17.27;;
39880;SDS011;25554;44.954;10.068;2024-01-11T15:55:25;41.33;;;17.45;;
39880;SDS011;25554;44.954;10.068;2024-01-11T15:57:51;33.67;;;17.52;;
39880;SDS011;25554;44.954;10.068;2024-01-11T16:00:20;32.90;;;17.35;;
39880;SDS011;25554;44.954;10.068;2024-01-11T16:02:46;39.15;;;18.00;;
39880;SDS011;25554;44.954;10.068;2024-01-11T16:05:12;35.05;;;17.45;;
39880;SDS011;25554;44.954;10.068;2024-01-11T16:07:39;34.65;;;16.52;;
39880;SDS011;25554;44.954;10.068;2024-01-11T16:12:32;37.78;;;16.60;;
39880;SDS011;25554;44.954;10.068;2024-01-11T16:14:59;36.88;;;18.60;;
39880;SDS011;25554;44.954;10.068;2024-01-11T16:17:26;36.83;;;17.90;;
39880;SDS011;25554;44.954;10.068;2024-01-11T16:19:52;37.63;;;17.90;;
39880;SDS011;25554;44.954;10.068;2024-01-11T16:22:19;34.67;;;17.50;;
39880;SDS011;25554;44.954;10.068;2024-01-11T16:24:46;35.30;;;17.17;;
39880;SDS011;25554;44.954;10.068;2024-01-11T16:27:13;36.78;;;18.95;;
39880;SDS011;25554;44.954;10.068;2024-01-11T16:29:40;40.88;;;19.85;;
39880;SDS011;25554;44.954;10.068;2024-01-11T16:32:08;38.40;;;17.88;;
39880;SDS011;25554;44.954;10.068;2024-01-11T16:34:38;41.53;;;17.85;;
39880;SDS011;25554;44.954;10.068;2024-01-11T16:37:07;39.33;;;19.73;;
39880;SDS011;25554;44.954;10.068;2024-01-11T16:39:35;46.63;;;21.02;;
39880;SDS011;25554;44.954;10.068;2024-01-11T16:42:02;46.60;;;21.33;;
39880;SDS011;25554;44.954;10.068;2024-01-11T16:44:28;47.03;;;21.50;;
39880;SDS011;25554;44.954;10.068;2024-01-11T16:49:21;49.33;;;19.70;;
39880;SDS011;25554;44.954;10.068;2024-01-11T16:51:49;44.90;;;19.92;;
39880;SDS011;25554;44.954;10.068;2024-01-11T16:54:15;50.97;;;20.08;;
39880;SDS011;25554;44.954;10.068;2024-01-11T16:56:41;43.53;;;19.85;;
39880;SDS011;25554;44.954;10.068;2024-01-11T16:59:08;42.75;;;20.15;;
39880;SDS011;25554;44.954;10.068;2024-01-11T17:01:35;50.22;;;21.65;;
39880;SDS011;25554;44.954;10.068;2024-01-11T17:04:01;41.13;;;20.38;;
39880;SDS011;25554;44.954;10.068;2024-01-11T17:08:54;38.20;;;19.58;;
39880;SDS011;25554;44.954;10.068;2024-01-11T17:11:21;45.13;;;20.25;;
39880;SDS011;25554;44.954;10.068;2024-01-11T17:13:48;43.85;;;18.50;;